Terminal Aerodrome Forecast
Issued by NWS Omaha/Valley, NE

Home | Current Version | Previous Version | Graphics & Text | Print | Product List | Glossary Off
Versions: 1 2 3 4 5 6 7 8 9 10 11 12 13 14 15 16 17 18 19 20 21 22 23 24 25 26 27 28 29 30 31 32 33 34 35 36 37 38 39 40 41 42 43 44 45

949
FTUS43 KOAX 171720
TAFOFK
TAF
KOFK 171720Z 1718/1818 29011KT P6SM FEW040
     FM172300 27005KT P6SM SKC
     FM180100 17004KT P6SM FEW250
     FM180700 17005KT P6SM BKN100
      TEMPO 1808/1812 5SM -SHRA OVC050
     FM181300 16005KT P6SM SCT120=

USA.gov is the U.S. government's official web portal to all federal, state and local government web resources and services.